Time;durP1;ratioP1;P1;durP2;ratioP2;P2;SDS_P1;SDS_P2;PMS_P1;PMS_P2;Temp;Humidity;BMP_temperature;BMP_pressure;BME280_temperature;BME280_humidity;BME280_pressure;Samples;Min_cycle;Max_cycle;Signal;HPM_P1;HPM_P2
2022/09/13 00:00:40;;;;;;;0.00;0.00;;;;;;;14.02;100.00;96206.28;5057827;28;20219;-76
2022/09/13 00:03:08;;;;;;;0.08;0.03;;;;;;;13.95;100.00;96200.38;5076248;28;20153;-76
2022/09/13 00:05:34;;;;;;;0.00;0.00;;;;;;;13.90;100.00;96192.31;5078502;28;20270;-76
2022/09/13 00:08:00;;;;;;;0.00;0.00;;;;;;;13.84;100.00;96188.84;5055964;28;20303;-76
2022/09/13 00:10:28;;;;;;;0.00;0.00;;;;;;;13.84;100.00;96186.16;5074494;28;20151;-76
2022/09/13 00:12:53;;;;;;;0.10;0.00;;;;;;;13.86;100.00;96173.25;5059884;28;20040;-76
2022/09/13 00:15:20;;;;;;;0.00;0.00;;;;;;;13.89;100.00;96161.13;5077534;28;20028;-76
2022/09/13 00:17:45;;;;;;;0.08;0.00;;;;;;;13.93;100.00;96164.91;5058201;28;20035;-76
2022/09/13 00:20:14;;;;;;;0.00;0.00;;;;;;;13.92;100.00;96166.75;5060659;28;20036;-76
2022/09/13 00:22:39;;;;;;;0.00;0.00;;;;;;;13.88;100.00;96170.28;5075251;28;20056;-76
2022/09/13 00:25:06;;;;;;;0.00;0.00;;;;;;;13.84;100.00;96172.72;5075844;28;20127;-76
2022/09/13 00:27:33;;;;;;;0.00;0.00;;;;;;;13.96;100.00;96172.41;5076295;28;20242;-76
2022/09/13 00:29:59;;;;;;;0.10;0.00;;;;;;;14.06;100.00;96171.53;5073609;28;20092;-76
2022/09/13 00:32:24;;;;;;;0.10;0.00;;;;;;;14.11;100.00;96161.56;5072853;28;20040;-76
2022/09/13 00:34:50;;;;;;;0.00;0.00;;;;;;;14.10;100.00;96157.25;5078505;28;20059;-76
2022/09/13 00:37:15;;;;;;;0.00;0.00;;;;;;;14.16;100.00;96158.84;5074448;28;20042;-76
2022/09/13 00:39:43;;;;;;;0.00;0.00;;;;;;;14.20;100.00;96159.09;5074503;28;20112;-76
2022/09/13 00:42:13;;;;;;;0.00;0.00;;;;;;;14.22;100.00;96159.59;5052952;28;20027;-76
2022/09/13 00:44:47;;;;;;;0.00;0.00;;;;;;;14.24;100.00;96165.53;5077246;28;20032;-76
2022/09/13 00:47:17;;;;;;;0.05;0.05;;;;;;;14.29;100.00;96167.38;5073263;28;20577;-76
2022/09/13 00:49:47;;;;;;;0.00;0.00;;;;;;;14.31;100.00;96159.81;5058775;28;20032;-76
2022/09/13 00:52:17;;;;;;;0.00;0.00;;;;;;;14.33;100.00;96150.41;5072965;28;20032;-76
2022/09/13 00:54:51;;;;;;;0.00;0.00;;;;;;;14.37;100.00;96135.28;5078788;28;20028;-76
2022/09/13 00:57:20;;;;;;;0.10;0.10;;;;;;;14.41;100.00;96136.34;5057503;28;20541;-76
2022/09/13 00:59:52;;;;;;;0.00;0.00;;;;;;;14.54;100.00;96129.53;5077111;28;20024;-76
2022/09/13 01:02:18;;;;;;;0.00;0.00;;;;;;;14.67;100.00;96134.28;5074276;28;20032;-76
2022/09/13 01:04:44;;;;;;;0.00;0.00;;;;;;;14.65;100.00;96117.59;5057897;28;20055;-76
2022/09/13 01:07:14;;;;;;;0.00;0.00;;;;;;;14.73;100.00;96105.44;5072475;28;20485;-76
2022/09/13 01:09:43;;;;;;;0.00;0.00;;;;;;;14.71;100.00;96113.78;5075347;28;20052;-76
2022/09/13 01:12:30;;;;;;;0.00;0.00;;;;;;;14.75;100.00;96117.50;5052151;28;20135;-76
2022/09/13 01:14:58;;;;;;;0.00;0.00;;;;;;;14.70;100.00;96111.34;5077620;28;20438;-77
2022/09/13 01:17:27;;;;;;;0.03;0.03;;;;;;;14.63;100.00;96110.88;5076178;28;20333;-77
2022/09/13 01:19:53;;;;;;;0.00;0.00;;;;;;;14.59;100.00;96115.22;5061686;28;20039;-77
2022/09/13 01:23:09;;;;;;;0.00;0.00;;;;;;;14.54;100.00;96117.97;5074751;28;20029;-77
2022/09/13 01:26:15;;;;;;;0.00;0.00;;;;;;;14.63;100.00;96119.78;5059750;28;20051;-75
2022/09/13 01:28:57;;;;;;;0.03;0.03;;;;;;;14.62;100.00;96120.84;5046258;28;20444;-76
2022/09/13 01:31:42;;;;;;;0.00;0.00;;;;;;;14.64;100.00;96112.50;5078499;28;20512;-76
2022/09/13 01:34:16;;;;;;;0.10;0.00;;;;;;;14.64;100.00;96124.09;5077567;28;20391;-76
2022/09/13 01:37:03;;;;;;;0.00;0.00;;;;;;;14.62;100.00;96137.00;5078817;28;20151;-75
2022/09/13 01:39:47;;;;;;;0.10;0.10;;;;;;;14.68;100.00;96138.56;5081132;28;20475;-75
2022/09/13 01:42:35;;;;;;;0.10;0.10;;;;;;;14.67;100.00;96118.13;5073240;28;20028;-76
2022/09/13 01:45:15;;;;;;;0.00;0.00;;;;;;;14.71;100.00;96118.38;5062500;28;20043;-76
2022/09/13 01:47:51;;;;;;;0.05;0.05;;;;;;;14.79;100.00;96119.66;5071890;28;20039;-75
2022/09/13 01:50:42;;;;;;;0.10;0.10;;;;;;;14.93;100.00;96109.81;5057452;28;20032;-76
2022/09/13 01:53:36;;;;;;;0.00;0.00;;;;;;;15.10;100.00;96118.28;5076846;28;20036;-76
2022/09/13 01:56:09;;;;;;;0.17;0.10;;;;;;;15.20;100.00;96111.97;5062797;28;20118;-75
2022/09/13 01:58:48;;;;;;;0.00;0.00;;;;;;;15.30;100.00;96118.03;5059796;28;20036;-76
2022/09/13 02:01:24;;;;;;;0.00;0.00;;;;;;;15.38;100.00;96121.22;5074897;28;20110;-76
2022/09/13 02:04:07;;;;;;;0.00;0.00;;;;;;;15.47;100.00;96128.38;5079125;28;20052;-76
2022/09/13 02:06:38;;;;;;;0.00;0.00;;;;;;;15.54;100.00;96125.31;5074977;28;20032;-76
2022/09/13 02:09:10;;;;;;;0.00;0.00;;;;;;;15.61;100.00;96123.13;5077638;28;20495;-76
2022/09/13 02:11:39;;;;;;;0.10;0.10;;;;;;;15.66;100.00;96125.75;5079042;28;20032;-76
2022/09/13 02:14:07;;;;;;;0.10;0.08;;;;;;;15.73;100.00;96122.72;5074068;28;20093;-76
2022/09/13 02:16:37;;;;;;;0.13;0.00;;;;;;;15.81;100.00;96124.78;5072906;28;20034;-76
2022/09/13 02:19:12;;;;;;;0.00;0.00;;;;;;;15.82;100.00;96119.09;5046036;28;20249;-76
2022/09/13 02:21:43;;;;;;;0.00;0.00;;;;;;;15.81;100.00;96125.56;5078315;28;20036;-76
2022/09/13 02:24:32;;;;;;;0.00;0.00;;;;;;;15.73;100.00;96125.41;5075772;28;20074;-76
2022/09/13 02:27:05;;;;;;;0.10;0.10;;;;;;;15.58;100.00;96127.19;5077778;28;20351;-76
2022/09/13 02:29:33;;;;;;;0.10;0.10;;;;;;;15.56;100.00;96132.06;5072156;28;20241;-75
2022/09/13 02:32:04;;;;;;;0.00;0.00;;;;;;;15.55;100.00;96126.94;5078604;28;20044;-76
2022/09/13 02:34:39;;;;;;;0.00;0.00;;;;;;;15.58;100.00;96124.47;5077403;28;20032;-76
2022/09/13 02:37:07;;;;;;;0.00;0.00;;;;;;;15.62;100.00;96123.91;5078019;28;20044;-76
2022/09/13 02:39:36;;;;;;;0.00;0.00;;;;;;;15.67;100.00;96118.47;5058879;28;20028;-75
2022/09/13 02:42:05;;;;;;;0.00;0.00;;;;;;;15.72;100.00;96119.22;5078259;28;20047;-76
2022/09/13 02:44:52;;;;;;;0.00;0.00;;;;;;;15.75;100.00;96115.13;5061343;28;20089;-75
2022/09/13 02:47:45;;;;;;;0.10;0.10;;;;;;;15.80;100.00;96109.69;5060420;28;20071;-76
2022/09/13 02:50:13;;;;;;;0.10;0.10;;;;;;;15.82;100.00;96112.88;5075414;28;20043;-76
2022/09/13 02:53:00;;;;;;;0.08;0.08;;;;;;;15.70;100.00;96099.81;5059077;28;20039;-75
2022/09/13 02:55:34;;;;;;;0.10;0.10;;;;;;;15.67;100.00;96103.09;5074611;28;20043;-76
2022/09/13 02:58:23;;;;;;;0.05;0.05;;;;;;;15.52;100.00;96105.94;5074510;28;20040;-75
2022/09/13 03:00:49;;;;;;;0.00;0.00;;;;;;;15.43;100.00;96103.09;5063813;28;20051;-76
2022/09/13 03:03:15;;;;;;;0.00;0.00;;;;;;;15.37;100.00;96098.03;5072433;28;20028;-75
2022/09/13 03:05:42;;;;;;;0.10;0.03;;;;;;;15.31;100.00;96098.09;5075196;28;20424;-75
2022/09/13 03:08:12;;;;;;;0.00;0.00;;;;;;;15.20;100.00;96098.50;5074912;28;20043;-76
2022/09/13 03:11:09;;;;;;;0.10;0.10;;;;;;;15.12;100.00;96108.00;5059551;28;20031;-76
2022/09/13 03:14:17;;;;;;;0.20;0.10;;;;;;;14.94;100.00;96096.06;5075533;28;20061;-76
2022/09/13 03:17:07;;;;;;;0.00;0.00;;;;;;;14.93;100.00;96102.53;5073319;28;20154;-76
2022/09/13 03:19:39;;;;;;;0.00;0.00;;;;;;;14.91;100.00;96093.94;5078201;28;20505;-76
2022/09/13 03:22:23;;;;;;;0.10;0.10;;;;;;;14.96;100.00;96093.88;5075943;28;20460;-76
2022/09/13 03:25:01;;;;;;;0.10;0.10;;;;;;;14.94;100.00;96087.16;5074662;28;20043;-76
2022/09/13 03:27:45;;;;;;;0.00;0.00;;;;;;;14.97;100.00;96083.91;5046931;28;20039;-76
2022/09/13 03:30:13;;;;;;;0.00;0.00;;;;;;;15.08;100.00;96095.38;5074634;28;20032;-76
2022/09/13 03:32:48;;;;;;;0.00;0.00;;;;;;;15.24;100.00;96092.22;5057919;28;20032;-76
2022/09/13 03:35:49;;;;;;;0.00;0.00;;;;;;;15.41;100.00;96088.28;5071605;28;20052;-76
2022/09/13 03:38:17;;;;;;;0.10;0.00;;;;;;;15.52;100.00;96078.97;5055689;28;20059;-76
2022/09/13 03:40:50;;;;;;;0.00;0.00;;;;;;;15.57;100.00;96081.63;5057745;28;20162;-76
2022/09/13 03:43:34;;;;;;;0.00;0.00;;;;;;;15.61;100.00;96082.66;5035395;28;20074;-76
2022/09/13 03:46:04;;;;;;;0.00;0.00;;;;;;;15.67;100.00;96086.09;5044125;28;20052;-76
2022/09/13 03:48:35;;;;;;;0.00;0.00;;;;;;;15.71;100.00;96081.72;5040480;28;20036;-76
2022/09/13 03:51:00;;;;;;;0.00;0.00;;;;;;;15.73;100.00;96076.88;5055671;28;20128;-76
2022/09/13 03:53:29;;;;;;;0.00;0.00;;;;;;;15.75;100.00;96080.06;5052394;28;20437;-76
2022/09/13 03:55:54;;;;;;;0.10;0.10;;;;;;;15.72;100.00;96083.31;5055064;28;20051;-76
2022/09/13 03:58:22;;;;;;;0.00;0.00;;;;;;;15.75;100.00;96071.97;5055566;28;20479;-76
2022/09/13 04:00:47;;;;;;;0.00;0.00;;;;;;;15.82;100.00;96078.63;5039205;28;20131;-76
2022/09/13 04:03:14;;;;;;;0.00;0.00;;;;;;;15.86;100.00;96068.84;5055224;28;20041;-76
2022/09/13 04:05:39;;;;;;;0.00;0.00;;;;;;;15.87;100.00;96070.47;5058487;28;20080;-76
2022/09/13 04:08:06;;;;;;;0.00;0.00;;;;;;;15.90;100.00;96074.47;5039723;28;20321;-76
2022/09/13 04:10:35;;;;;;;0.00;0.00;;;;;;;15.85;100.00;96061.84;5045181;28;20036;-76
2022/09/13 04:13:01;;;;;;;0.10;0.10;;;;;;;15.82;100.00;96067.03;5056391;28;20522;-76
2022/09/13 04:15:27;;;;;;;0.00;0.00;;;;;;;15.78;100.00;96072.19;5055358;28;20059;-77
2022/09/13 04:17:53;;;;;;;0.00;0.00;;;;;;;15.74;100.00;96070.38;5058129;28;20032;-77
2022/09/13 04:20:19;;;;;;;0.05;0.05;;;;;;;15.64;100.00;96062.41;5055175;28;20372;-77
2022/09/13 04:23:03;;;;;;;0.10;0.10;;;;;;;15.58;100.00;96067.06;5057638;28;20409;-75
2022/09/13 04:25:29;;;;;;;0.10;0.10;;;;;;;15.54;100.00;96061.41;5056232;28;20032;-75
2022/09/13 04:27:58;;;;;;;0.00;0.00;;;;;;;15.51;100.00;96070.09;5056486;28;20493;-75
2022/09/13 04:30:24;;;;;;;0.00;0.00;;;;;;;15.47;100.00;96071.75;5059312;28;20048;-76
2022/09/13 04:32:50;;;;;;;0.05;0.05;;;;;;;15.49;100.00;96071.47;5057320;28;20093;-76
2022/09/13 04:35:16;;;;;;;0.03;0.03;;;;;;;15.50;100.00;96070.38;5060322;28;20477;-76
2022/09/13 04:37:43;;;;;;;0.03;0.03;;;;;;;15.56;100.00;96071.91;5056767;28;20038;-77
2022/09/13 04:40:09;;;;;;;0.00;0.00;;;;;;;15.49;100.00;96068.78;5076457;28;20165;-76
2022/09/13 04:42:34;;;;;;;0.00;0.00;;;;;;;15.48;100.00;96072.53;5075848;28;20027;-77
2022/09/13 04:45:00;;;;;;;0.00;0.00;;;;;;;15.42;100.00;96062.94;5056234;28;20036;-77
2022/09/13 04:47:26;;;;;;;0.05;0.05;;;;;;;15.30;100.00;96061.44;5073359;28;20032;-76
2022/09/13 04:49:51;;;;;;;0.10;0.10;;;;;;;15.41;100.00;96061.31;5059158;28;20114;-77
2022/09/13 04:52:17;;;;;;;0.08;0.08;;;;;;;15.48;100.00;96059.88;5078395;28;20059;-76
2022/09/13 04:54:42;;;;;;;0.00;0.00;;;;;;;15.55;100.00;96065.72;5081819;28;20455;-76
2022/09/13 04:57:08;;;;;;;0.10;0.10;;;;;;;15.42;100.00;96074.53;5045754;28;20036;-76
2022/09/13 04:59:33;;;;;;;0.00;0.00;;;;;;;15.36;100.00;96080.25;5047608;28;20028;-76
2022/09/13 05:01:59;;;;;;;0.08;0.00;;;;;;;15.36;100.00;96082.97;5077771;28;20123;-76
2022/09/13 05:04:24;;;;;;;0.25;0.00;;;;;;;15.37;100.00;96079.97;5081333;28;20035;-76
2022/09/13 05:06:50;;;;;;;0.10;0.10;;;;;;;15.43;100.00;96078.03;5044886;28;20042;-76
2022/09/13 05:09:15;;;;;;;0.40;0.10;;;;;;;15.40;100.00;96075.88;5081243;28;20340;-76
2022/09/13 05:11:41;;;;;;;0.10;0.10;;;;;;;15.39;100.00;96085.88;5064457;28;20439;-76
2022/09/13 05:14:11;;;;;;;0.52;0.17;;;;;;;15.44;100.00;96085.81;5064338;28;20040;-76
2022/09/13 05:16:36;;;;;;;0.10;0.10;;;;;;;15.45;100.00;96089.31;5079825;28;20157;-76
2022/09/13 05:19:02;;;;;;;0.08;0.08;;;;;;;15.45;100.00;96086.63;5083311;28;20040;-76
2022/09/13 05:21:29;;;;;;;0.32;0.10;;;;;;;15.37;100.00;96098.03;5083905;28;20413;-77
2022/09/13 05:23:56;;;;;;;0.10;0.10;;;;;;;15.37;100.00;96098.03;5082812;28;20032;-78
2022/09/13 05:26:25;;;;;;;0.03;0.03;;;;;;;15.39;100.00;96090.47;5082037;28;20123;-78
2022/09/13 05:28:50;;;;;;;0.00;0.00;;;;;;;15.48;100.00;96105.69;5051988;28;20023;-79
2022/09/13 05:31:23;;;;;;;0.00;0.00;;;;;;;15.47;100.00;96100.59;5080827;28;20034;-79
2022/09/13 05:33:53;;;;;;;0.08;0.08;;;;;;;15.45;100.00;96097.41;5084713;28;20024;-77
2022/09/13 05:36:19;;;;;;;0.10;0.10;;;;;;;15.50;100.00;96094.66;5060933;28;20051;-77
2022/09/13 05:38:45;;;;;;;0.00;0.00;;;;;;;15.60;100.00;96097.22;5081914;28;20036;-77
2022/09/13 05:41:10;;;;;;;0.10;0.00;;;;;;;15.68;100.00;96099.31;5081469;28;20038;-77
2022/09/13 05:43:36;;;;;;;0.10;0.10;;;;;;;15.80;100.00;96101.59;5080093;28;20482;-77
2022/09/13 05:46:01;;;;;;;0.00;0.00;;;;;;;15.91;100.00;96104.94;5082612;28;20123;-77
2022/09/13 05:48:28;;;;;;;0.10;0.10;;;;;;;15.98;100.00;96113.47;5078175;28;20403;-77
2022/09/13 05:50:53;;;;;;;0.10;0.10;;;;;;;16.03;100.00;96116.09;5082838;28;20042;-77
2022/09/13 05:53:19;;;;;;;0.00;0.00;;;;;;;16.04;100.00;96104.22;5079501;28;20036;-77
2022/09/13 05:55:44;;;;;;;0.03;0.03;;;;;;;16.12;100.00;96115.16;5076435;28;20111;-77
2022/09/13 05:58:10;;;;;;;0.00;0.00;;;;;;;16.16;100.00;96123.47;5057254;28;20071;-77
2022/09/13 06:00:36;;;;;;;0.00;0.00;;;;;;;16.21;100.00;96120.72;5051150;28;20047;-77
2022/09/13 06:03:01;;;;;;;0.00;0.00;;;;;;;16.22;100.00;96113.41;5079647;28;20580;-78
2022/09/13 06:05:26;;;;;;;0.00;0.00;;;;;;;16.19;100.00;96105.91;5079250;28;20337;-77
2022/09/13 06:07:52;;;;;;;0.05;0.05;;;;;;;16.21;100.00;96115.31;5067279;28;20193;-77
2022/09/13 06:10:18;;;;;;;0.10;0.10;;;;;;;16.26;100.00;96115.22;5078965;28;20035;-77
2022/09/13 06:12:45;;;;;;;0.10;0.10;;;;;;;16.40;100.00;96109.88;5079715;28;20114;-77
2022/09/13 06:15:10;;;;;;;0.00;0.00;;;;;;;16.44;100.00;96106.31;5079886;28;20329;-77
2022/09/13 06:17:36;;;;;;;0.00;0.00;;;;;;;16.46;100.00;96113.31;5061356;28;20027;-77
2022/09/13 06:20:02;;;;;;;0.00;0.00;;;;;;;16.39;100.00;96114.50;5081652;28;20059;-77
2022/09/13 06:22:32;;;;;;;0.00;0.00;;;;;;;16.44;100.00;96113.63;5078666;28;20023;-77
2022/09/13 06:24:58;;;;;;;0.10;0.10;;;;;;;16.49;100.00;96121.63;5078685;28;20343;-77
2022/09/13 06:27:24;;;;;;;0.00;0.00;;;;;;;16.55;100.00;96114.25;5080742;28;20495;-77
2022/09/13 06:29:49;;;;;;;0.20;0.00;;;;;;;16.52;100.00;96114.84;5076601;28;20023;-77
2022/09/13 06:32:14;;;;;;;0.00;0.00;;;;;;;16.55;100.00;96112.34;5077378;28;20036;-77
2022/09/13 06:34:40;;;;;;;0.00;0.00;;;;;;;16.53;100.00;96114.56;5080941;28;20062;-77
2022/09/13 06:37:05;;;;;;;0.10;0.10;;;;;;;16.60;100.00;96097.97;5078371;28;20071;-77
2022/09/13 06:39:33;;;;;;;0.10;0.10;;;;;;;16.60;100.00;96093.38;5082696;28;20097;-77
2022/09/13 06:41:59;;;;;;;0.00;0.00;;;;;;;16.51;100.00;96087.06;5082278;28;20217;-77
2022/09/13 06:44:37;;;;;;;0.00;0.00;;;;;;;16.58;100.00;96079.38;5049279;28;20028;-77
2022/09/13 06:47:03;;;;;;;0.00;0.00;;;;;;;16.60;100.00;96081.78;5077733;28;20035;-78
2022/09/13 06:49:30;;;;;;;0.10;0.10;;;;;;;16.68;100.00;96081.09;5081919;28;20118;-77
2022/09/13 06:51:56;;;;;;;0.00;0.00;;;;;;;16.84;100.00;96081.66;5079163;28;20075;-77
2022/09/13 06:54:21;;;;;;;0.00;0.00;;;;;;;16.91;100.00;96071.28;5063776;28;20032;-77
2022/09/13 06:56:47;;;;;;;0.10;0.10;;;;;;;16.87;100.00;96071.03;5079007;28;20124;-77
2022/09/13 06:59:13;;;;;;;0.00;0.00;;;;;;;16.93;100.00;96077.97;5079605;28;20032;-77
2022/09/13 07:01:41;;;;;;;0.00;0.00;;;;;;;17.02;100.00;96074.56;5077448;28;20028;-77
2022/09/13 07:04:09;;;;;;;0.03;0.03;;;;;;;17.01;100.00;96073.78;5080569;28;20036;-77
2022/09/13 07:06:38;;;;;;;0.00;0.00;;;;;;;16.98;100.00;96075.19;5078617;28;20027;-77
2022/09/13 07:09:06;;;;;;;0.10;0.10;;;;;;;16.95;100.00;96073.06;5078045;28;20036;-77
2022/09/13 07:11:34;;;;;;;0.10;0.05;;;;;;;16.98;100.00;96067.06;5079546;28;20330;-77
2022/09/13 07:14:00;;;;;;;0.00;0.00;;;;;;;16.98;100.00;96083.28;5080685;28;20032;-77
2022/09/13 07:16:28;;;;;;;0.00;0.00;;;;;;;17.16;100.00;96083.50;5075656;28;20038;-77
2022/09/13 07:18:58;;;;;;;1.00;0.17;;;;;;;17.20;100.00;96095.34;5057844;28;20040;-77
2022/09/13 07:21:25;;;;;;;0.00;0.00;;;;;;;17.29;100.00;96096.25;5079023;28;20724;-77
2022/09/13 07:23:52;;;;;;;0.00;0.00;;;;;;;17.45;100.00;96097.56;5079559;28;20073;-77
2022/09/13 07:26:19;;;;;;;0.00;0.00;;;;;;;17.44;100.00;96095.16;5079958;28;20052;-77
2022/09/13 07:28:47;;;;;;;0.10;0.10;;;;;;;17.57;100.00;96088.13;5068877;28;20089;-76
2022/09/13 07:31:19;;;;;;;0.10;0.10;;;;;;;17.70;100.00;96090.84;5080295;28;20546;-76
2022/09/13 07:33:45;;;;;;;0.00;0.00;;;;;;;17.82;100.00;96079.53;5076761;28;20067;-76
2022/09/13 07:36:12;;;;;;;0.10;0.10;;;;;;;17.90;100.00;96086.91;5076951;28;20044;-76
2022/09/13 07:38:41;;;;;;;0.05;0.05;;;;;;;17.93;100.00;96085.50;5045811;28;20036;-76
2022/09/13 07:41:10;;;;;;;0.00;0.00;;;;;;;17.87;100.00;96079.38;5048077;28;20023;-76
2022/09/13 07:43:36;;;;;;;0.00;0.00;;;;;;;17.75;100.00;96068.31;5075904;28;20036;-76
2022/09/13 07:46:07;;;;;;;0.15;0.10;;;;;;;17.48;100.00;96080.72;5058923;28;20526;-76
2022/09/13 07:48:35;;;;;;;0.00;0.00;;;;;;;17.41;100.00;96077.59;5078657;28;20548;-76
2022/09/13 07:51:05;;;;;;;0.03;0.00;;;;;;;17.44;100.00;96085.13;5078336;28;20104;-76
2022/09/13 07:53:32;;;;;;;0.00;0.00;;;;;;;17.54;100.00;96081.41;5072965;28;20580;-76
2022/09/13 07:56:06;;;;;;;0.00;0.00;;;;;;;17.79;100.00;96080.09;5076627;28;20514;-76
2022/09/13 07:58:33;;;;;;;0.10;0.10;;;;;;;18.02;100.00;96084.47;5075950;28;20063;-76
2022/09/13 08:01:13;;;;;;;0.05;0.05;;;;;;;18.19;100.00;96083.03;5062943;28;20279;-76
2022/09/13 08:03:38;;;;;;;0.10;0.10;;;;;;;18.31;100.00;96089.50;5081596;28;20028;-76
2022/09/13 08:06:05;;;;;;;0.10;0.10;;;;;;;18.43;100.00;96083.53;5076355;28;20088;-76
2022/09/13 08:08:31;;;;;;;0.10;0.10;;;;;;;18.36;100.00;96077.72;5081017;28;20036;-76
2022/09/13 08:10:58;;;;;;;0.00;0.00;;;;;;;18.66;100.00;96078.94;5083880;28;20035;-76
2022/09/13 08:13:24;;;;;;;0.00;0.00;;;;;;;18.67;100.00;96085.16;5075728;28;20336;-76
2022/09/13 08:15:50;;;;;;;0.10;0.05;;;;;;;18.57;100.00;96086.97;5061089;28;20406;-76
2022/09/13 08:18:17;;;;;;;0.00;0.00;;;;;;;18.49;100.00;96076.88;5075668;28;20493;-76
2022/09/13 08:20:42;;;;;;;0.03;0.03;;;;;;;18.75;100.00;96093.34;5077600;28;20283;-76
2022/09/13 08:23:09;;;;;;;0.00;0.00;;;;;;;19.06;100.00;96087.13;5075998;28;20043;-76
2022/09/13 08:25:37;;;;;;;0.35;0.10;;;;;;;19.40;100.00;96086.50;5080471;28;20540;-76
2022/09/13 08:28:17;;;;;;;0.10;0.10;;;;;;;19.67;100.00;96088.22;5082619;28;20066;-76
2022/09/13 08:30:43;;;;;;;0.00;0.00;;;;;;;19.75;100.00;96079.28;5081815;28;20028;-76
2022/09/13 08:33:10;;;;;;;0.00;0.00;;;;;;;19.92;100.00;96075.81;5081930;28;20498;-76
2022/09/13 08:35:36;;;;;;;0.10;0.10;;;;;;;20.18;100.00;96076.66;5080373;28;20124;-76
2022/09/13 08:38:03;;;;;;;0.00;0.00;;;;;;;19.99;100.00;96070.72;5081088;28;20039;-76
2022/09/13 08:40:47;;;;;;;0.10;0.10;;;;;;;20.21;100.00;96070.56;5082825;28;20039;-76
2022/09/13 08:43:19;;;;;;;0.00;0.00;;;;;;;20.47;100.00;96067.91;5078755;28;20312;-76
2022/09/13 08:45:53;;;;;;;0.10;0.10;;;;;;;20.30;100.00;96063.22;5081037;28;20035;-76
2022/09/13 08:48:32;;;;;;;0.00;0.00;;;;;;;20.34;100.00;96066.09;5080144;28;20368;-76
2022/09/13 08:51:03;;;;;;;0.00;0.00;;;;;;;20.27;100.00;96069.31;5078614;28;20038;-76
2022/09/13 08:53:31;;;;;;;0.05;0.05;;;;;;;20.59;100.00;96062.59;5077972;28;20032;-76
2022/09/13 08:56:09;;;;;;;0.08;0.05;;;;;;;20.83;100.00;96062.06;5096246;27;20039;-76
2022/09/13 08:58:55;;;;;;;0.00;0.00;;;;;;;21.06;99.20;96070.00;5061264;28;20482;-77
2022/09/13 09:01:40;;;;;;;0.03;0.03;;;;;;;21.18;97.63;96070.13;5078251;28;20060;-76
2022/09/13 09:04:25;;;;;;;0.00;0.00;;;;;;;21.40;98.25;96064.47;5081459;28;20047;-76
2022/09/13 09:07:11;;;;;;;0.00;0.00;;;;;;;21.53;97.42;96057.19;5077030;28;20102;-76
2022/09/13 09:09:58;;;;;;;0.00;0.00;;;;;;;21.72;95.34;96064.16;5080663;28;20138;-76
2022/09/13 09:12:48;;;;;;;0.10;0.10;;;;;;;21.81;96.66;96057.53;5078659;28;20261;-77
2022/09/13 09:15:19;;;;;;;0.17;0.10;;;;;;;21.91;95.01;96059.06;5082902;28;20031;-77
2022/09/13 09:18:02;;;;;;;0.00;0.00;;;;;;;22.01;93.14;96055.16;5079572;28;20509;-77
2022/09/13 09:20:41;;;;;;;0.10;0.10;;;;;;;22.00;93.92;96062.53;5042959;28;20040;-77
2022/09/13 09:23:24;;;;;;;0.00;0.00;;;;;;;21.94;94.82;96064.66;5081445;28;20534;-77
2022/09/13 09:26:10;;;;;;;0.10;0.10;;;;;;;22.10;94.27;96072.25;5082446;28;20554;-77
2022/09/13 09:28:35;;;;;;;0.00;0.00;;;;;;;22.32;94.47;96085.56;5069301;28;20031;-77
2022/09/13 09:31:11;;;;;;;0.10;0.10;;;;;;;22.43;92.03;96085.97;5065165;28;20035;-77
2022/09/13 09:33:39;;;;;;;0.05;0.05;;;;;;;22.68;92.88;96087.66;5081282;28;20831;-77
2022/09/13 09:36:28;;;;;;;0.10;0.10;;;;;;;22.83;90.75;96088.97;5078849;28;20052;-77
2022/09/13 09:38:54;;;;;;;0.00;0.00;;;;;;;22.92;90.46;96086.19;5082894;28;20344;-77
2022/09/13 09:41:25;;;;;;;0.03;0.03;;;;;;;22.93;89.08;96091.31;5080734;28;20054;-77
2022/09/13 09:44:19;;;;;;;0.22;0.10;;;;;;;23.00;90.37;96083.38;5082594;28;20436;-77
2022/09/13 09:47:01;;;;;;;0.00;0.00;;;;;;;23.30;89.02;96077.75;5080084;28;20040;-77
2022/09/13 09:52:27;;;;;;;0.00;0.00;;;;;;;23.73;88.88;96073.69;5078807;28;20105;-77
2022/09/13 09:54:58;;;;;;;0.00;0.00;;;;;;;23.89;87.30;96077.31;5077821;28;20043;-77
2022/09/13 09:57:49;;;;;;;0.00;0.00;;;;;;;24.12;86.78;96073.00;5078451;28;20667;-77
2022/09/13 10:00:15;;;;;;;;;;;;;;;24.27;81.27;96060.53;5080082;28;20044;-77
2022/09/13 10:02:44;;;;;;;0.10;0.10;;;;;;;24.29;83.00;96071.13;5078885;28;21238;-77
2022/09/13 10:05:11;;;;;;;0.10;0.10;;;;;;;24.31;83.12;96069.63;5080286;28;20491;-77
2022/09/13 10:07:37;;;;;;;0.10;0.10;;;;;;;24.58;81.19;96072.75;5079667;28;20479;-77
2022/09/13 10:10:21;;;;;;;0.10;0.10;;;;;;;24.89;80.66;96078.31;5076970;28;20031;-77
2022/09/13 10:12:51;;;;;;;0.10;0.10;;;;;;;24.85;74.19;96077.44;5064510;28;20466;-77
2022/09/13 10:15:19;;;;;;;0.10;0.10;;;;;;;25.20;77.92;96077.59;5075582;28;20024;-77
2022/09/13 10:18:06;;;;;;;0.10;0.10;;;;;;;25.40;70.11;96069.50;5082572;28;20031;-77
2022/09/13 10:20:32;;;;;;;0.00;0.00;;;;;;;25.70;72.21;96078.88;5079110;28;20075;-77
2022/09/13 10:23:13;;;;;;;0.10;0.10;;;;;;;26.24;65.83;96075.44;5059641;28;20040;-77
2022/09/13 10:25:39;;;;;;;;;;;;;;;26.75;62.41;96072.59;5062758;28;20098;-77
2022/09/13 10:28:12;;;;;;;0.10;0.10;;;;;;;27.20;56.61;96073.84;5077874;28;19916;-77
2022/09/13 10:30:45;;;;;;;0.10;0.10;;;;;;;28.18;53.74;96075.06;4378554;28;9999948;-77
2022/09/13 10:33:38;;;;;;;0.00;0.00;;;;;;;29.03;45.79;96072.66;5078871;28;20557;-77
2022/09/13 10:36:15;;;;;;;0.00;0.00;;;;;;;30.47;41.44;96074.22;5040637;28;20371;-78
2022/09/13 10:38:50;;;;;;;0.00;0.00;;;;;;;31.84;40.00;96068.72;5077679;28;20031;-77
2022/09/13 10:41:25;;;;;;;0.10;0.10;;;;;;;33.16;34.23;96064.78;5073803;28;20046;-78
2022/09/13 10:44:02;;;;;;;0.00;0.00;;;;;;;33.97;32.80;96066.19;5079555;28;20099;-78
2022/09/13 10:46:31;;;;;;;0.10;0.10;;;;;;;34.51;32.31;96068.47;5077141;28;20060;-77
2022/09/13 10:48:57;;;;;;;0.00;0.00;;;;;;;34.10;33.67;96058.16;5078313;28;20375;-78
2022/09/13 10:51:25;;;;;;;0.10;0.10;;;;;;;33.42;35.37;96055.91;5075145;28;20032;-77
2022/09/13 10:54:07;;;;;;;0.10;0.10;;;;;;;33.31;33.92;96049.66;5078688;28;20119;-78
2022/09/13 10:56:33;;;;;;;0.00;0.00;;;;;;;33.52;34.78;96049.50;5079336;28;20040;-78
2022/09/13 10:59:15;;;;;;;0.10;0.10;;;;;;;32.92;34.64;96041.56;5074833;28;20032;-78
2022/09/13 11:01:52;;;;;;;0.05;0.05;;;;;;;31.34;36.81;96043.75;5061117;28;20059;-78
2022/09/13 11:04:36;;;;;;;0.15;0.10;;;;;;;31.36;39.94;96042.56;5075160;28;20257;-78
2022/09/13 11:07:44;;;;;;;0.10;0.10;;;;;;;32.31;36.55;96032.66;5078009;28;20039;-78
2022/09/13 11:10:34;;;;;;;0.00;0.00;;;;;;;31.43;39.00;96035.09;5076055;28;20038;-77
2022/09/13 11:13:13;;;;;;;0.00;0.00;;;;;;;31.01;40.84;96044.09;5081411;28;20112;-77
2022/09/13 11:16:16;;;;;;;0.03;0.03;;;;;;;30.22;41.14;96046.50;5060747;28;20028;-77
2022/09/13 11:18:52;;;;;;;0.10;0.10;;;;;;;30.70;42.14;96042.81;5075429;28;20486;-78
2022/09/13 11:21:24;;;;;;;0.00;0.00;;;;;;;30.47;39.41;96048.59;5077620;28;20514;-78
2022/09/13 11:24:14;;;;;;;0.00;0.00;;;;;;;30.28;40.46;96043.38;5077600;28;20029;-78
2022/09/13 11:26:53;;;;;;;0.00;0.00;;;;;;;30.21;42.71;96031.13;5078652;28;20402;-77
2022/09/13 11:29:35;;;;;;;0.00;0.00;;;;;;;29.92;41.68;96032.09;5079073;28;20425;-78
2022/09/13 11:32:34;;;;;;;0.00;0.00;;;;;;;30.12;40.81;96019.66;5059085;28;20058;-77
2022/09/13 11:35:15;;;;;;;0.10;0.10;;;;;;;30.52;41.14;96026.16;5059989;28;20309;-77
2022/09/13 11:38:13;;;;;;;0.00;0.00;;;;;;;31.57;37.42;96014.94;5076620;28;20028;-77
2022/09/13 11:40:45;;;;;;;0.00;0.00;;;;;;;32.70;36.86;96016.72;5078379;28;20033;-77
2022/09/13 11:43:16;;;;;;;0.10;0.10;;;;;;;33.44;33.90;96014.72;5032299;28;20048;-78
2022/09/13 11:46:11;;;;;;;0.10;0.10;;;;;;;34.47;31.91;96012.16;5078464;28;20571;-78
2022/09/13 11:48:45;;;;;;;0.00;0.00;;;;;;;34.87;32.09;96004.91;5047567;28;20154;-77
2022/09/13 11:51:32;;;;;;;0.10;0.10;;;;;;;34.81;31.15;96004.59;5074645;28;20035;-78
2022/09/13 11:54:24;;;;;;;0.05;0.05;;;;;;;34.72;29.60;96000.75;5078596;28;20031;-78